sensor_id;sensor_type;location;lat;lon;timestamp;P1;durP1;ratioP1;P2;durP2;ratioP2
17251;SDS011;8742;51.716;8.790;2023-04-24T00:01:56;0.97;;;0.77;;
17251;SDS011;8742;51.716;8.790;2023-04-24T00:04:23;0.30;;;0.30;;
17251;SDS011;8742;51.716;8.790;2023-04-24T00:06:51;1.40;;;0.60;;
17251;SDS011;8742;51.716;8.790;2023-04-24T00:09:22;1.43;;;0.70;;
17251;SDS011;8742;51.716;8.790;2023-04-24T00:11:49;0.40;;;0.40;;
17251;SDS011;8742;51.716;8.790;2023-04-24T00:14:17;4.20;;;0.63;;
17251;SDS011;8742;51.716;8.790;2023-04-24T00:16:44;1.03;;;0.43;;
17251;SDS011;8742;51.716;8.790;2023-04-24T00:19:11;0.80;;;0.40;;
17251;SDS011;8742;51.716;8.790;2023-04-24T00:21:38;0.30;;;0.30;;
17251;SDS011;8742;51.716;8.790;2023-04-24T00:24:04;0.53;;;0.40;;
17251;SDS011;8742;51.716;8.790;2023-04-24T00:26:33;0.60;;;0.60;;
17251;SDS011;8742;51.716;8.790;2023-04-24T00:29:00;0.40;;;0.40;;
17251;SDS011;8742;51.716;8.790;2023-04-24T00:31:28;0.33;;;0.20;;
17251;SDS011;8742;51.716;8.790;2023-04-24T00:33:55;1.70;;;0.60;;
17251;SDS011;8742;51.716;8.790;2023-04-24T00:36:22;0.53;;;0.53;;
17251;SDS011;8742;51.716;8.790;2023-04-24T00:38:50;0.50;;;0.50;;
17251;SDS011;8742;51.716;8.790;2023-04-24T00:41:16;0.30;;;0.30;;
17251;SDS011;8742;51.716;8.790;2023-04-24T00:43:44;3.37;;;0.60;;
17251;SDS011;8742;51.716;8.790;2023-04-24T00:46:10;3.60;;;0.50;;
17251;SDS011;8742;51.716;8.790;2023-04-24T00:48:40;1.13;;;0.40;;
17251;SDS011;8742;51.716;8.790;2023-04-24T00:51:07;1.03;;;0.37;;
17251;SDS011;8742;51.716;8.790;2023-04-24T00:53:34;0.40;;;0.40;;
17251;SDS011;8742;51.716;8.790;2023-04-24T00:56:02;0.30;;;0.30;;
17251;SDS011;8742;51.716;8.790;2023-04-24T00:58:29;0.43;;;0.30;;
17251;SDS011;8742;51.716;8.790;2023-04-24T01:00:56;0.50;;;0.50;;
17251;SDS011;8742;51.716;8.790;2023-04-24T01:03:24;0.40;;;0.40;;
17251;SDS011;8742;51.716;8.790;2023-04-24T01:05:56;0.70;;;0.40;;
17251;SDS011;8742;51.716;8.790;2023-04-24T01:08:24;1.40;;;0.50;;
17251;SDS011;8742;51.716;8.790;2023-04-24T01:10:52;0.40;;;0.40;;
17251;SDS011;8742;51.716;8.790;2023-04-24T01:13:19;0.50;;;0.43;;
17251;SDS011;8742;51.716;8.790;2023-04-24T01:15:46;0.37;;;0.37;;
17251;SDS011;8742;51.716;8.790;2023-04-24T01:18:13;0.60;;;0.20;;
17251;SDS011;8742;51.716;8.790;2023-04-24T01:20:41;0.40;;;0.40;;
17251;SDS011;8742;51.716;8.790;2023-04-24T01:23:10;0.80;;;0.50;;
17251;SDS011;8742;51.716;8.790;2023-04-24T01:25:37;1.30;;;0.43;;
17251;SDS011;8742;51.716;8.790;2023-04-24T01:28:04;0.40;;;0.40;;
17251;SDS011;8742;51.716;8.790;2023-04-24T01:30:31;2.60;;;0.37;;
17251;SDS011;8742;51.716;8.790;2023-04-24T01:32:58;0.40;;;0.40;;
17251;SDS011;8742;51.716;8.790;2023-04-24T01:35:25;0.20;;;0.20;;
17251;SDS011;8742;51.716;8.790;2023-04-24T01:37:52;0.50;;;0.50;;
17251;SDS011;8742;51.716;8.790;2023-04-24T01:40:21;1.03;;;0.57;;
17251;SDS011;8742;51.716;8.790;2023-04-24T01:42:47;0.30;;;0.30;;
17251;SDS011;8742;51.716;8.790;2023-04-24T01:45:14;0.40;;;0.20;;
17251;SDS011;8742;51.716;8.790;2023-04-24T01:47:41;0.20;;;0.20;;
17251;SDS011;8742;51.716;8.790;2023-04-24T01:50:09;0.57;;;0.57;;
17251;SDS011;8742;51.716;8.790;2023-04-24T01:52:36;0.40;;;0.40;;
17251;SDS011;8742;51.716;8.790;2023-04-24T01:55:03;0.43;;;0.40;;
17251;SDS011;8742;51.716;8.790;2023-04-24T01:57:33;1.80;;;0.57;;
17251;SDS011;8742;51.716;8.790;2023-04-24T02:00:00;0.67;;;0.43;;
17251;SDS011;8742;51.716;8.790;2023-04-24T02:02:29;0.37;;;0.37;;
17251;SDS011;8742;51.716;8.790;2023-04-24T02:04:56;0.40;;;0.40;;
17251;SDS011;8742;51.716;8.790;2023-04-24T02:07:23;0.40;;;0.40;;
17251;SDS011;8742;51.716;8.790;2023-04-24T02:09:50;0.70;;;0.40;;
17251;SDS011;8742;51.716;8.790;2023-04-24T02:12:16;0.10;;;0.10;;
17251;SDS011;8742;51.716;8.790;2023-04-24T02:14:45;0.50;;;0.40;;
17251;SDS011;8742;51.716;8.790;2023-04-24T02:17:11;0.30;;;0.30;;
17251;SDS011;8742;51.716;8.790;2023-04-24T02:19:39;0.40;;;0.40;;
17251;SDS011;8742;51.716;8.790;2023-04-24T02:22:05;0.50;;;0.43;;
17251;SDS011;8742;51.716;8.790;2023-04-24T02:24:32;0.53;;;0.30;;
17251;SDS011;8742;51.716;8.790;2023-04-24T02:26:59;1.00;;;0.60;;
17251;SDS011;8742;51.716;8.790;2023-04-24T02:29:27;0.50;;;0.50;;
17251;SDS011;8742;51.716;8.790;2023-04-24T02:31:56;0.77;;;0.50;;
17251;SDS011;8742;51.716;8.790;2023-04-24T02:34:23;0.30;;;0.30;;
17251;SDS011;8742;51.716;8.790;2023-04-24T02:36:49;0.50;;;0.50;;
17251;SDS011;8742;51.716;8.790;2023-04-24T02:39:18;0.97;;;0.40;;
17251;SDS011;8742;51.716;8.790;2023-04-24T02:41:45;0.63;;;0.60;;
17251;SDS011;8742;51.716;8.790;2023-04-24T02:44:12;0.43;;;0.43;;
17251;SDS011;8742;51.716;8.790;2023-04-24T02:46:39;0.40;;;0.30;;
17251;SDS011;8742;51.716;8.790;2023-04-24T02:49:08;0.60;;;0.60;;
17251;SDS011;8742;51.716;8.790;2023-04-24T02:51:36;0.50;;;0.50;;
17251;SDS011;8742;51.716;8.790;2023-04-24T02:54:06;0.53;;;0.40;;
17251;SDS011;8742;51.716;8.790;2023-04-24T02:56:33;0.50;;;0.50;;
17251;SDS011;8742;51.716;8.790;2023-04-24T02:59:00;0.80;;;0.60;;
17251;SDS011;8742;51.716;8.790;2023-04-24T03:01:27;1.23;;;0.50;;
17251;SDS011;8742;51.716;8.790;2023-04-24T03:03:54;0.40;;;0.40;;
17251;SDS011;8742;51.716;8.790;2023-04-24T03:06:22;0.60;;;0.60;;
17251;SDS011;8742;51.716;8.790;2023-04-24T03:08:49;1.73;;;0.60;;
17251;SDS011;8742;51.716;8.790;2023-04-24T03:11:16;2.20;;;0.57;;
17251;SDS011;8742;51.716;8.790;2023-04-24T03:13:43;0.60;;;0.50;;
17251;SDS011;8742;51.716;8.790;2023-04-24T03:16:10;2.27;;;0.30;;
17251;SDS011;8742;51.716;8.790;2023-04-24T03:18:36;2.00;;;0.63;;
17251;SDS011;8742;51.716;8.790;2023-04-24T03:21:03;2.47;;;0.70;;
17251;SDS011;8742;51.716;8.790;2023-04-24T03:23:31;1.30;;;0.60;;
17251;SDS011;8742;51.716;8.790;2023-04-24T03:25:58;2.43;;;0.80;;
17251;SDS011;8742;51.716;8.790;2023-04-24T03:28:25;1.10;;;0.70;;
17251;SDS011;8742;51.716;8.790;2023-04-24T03:30:52;1.23;;;0.33;;
17251;SDS011;8742;51.716;8.790;2023-04-24T03:33:19;0.50;;;0.47;;
17251;SDS011;8742;51.716;8.790;2023-04-24T03:35:46;0.70;;;0.53;;
17251;SDS011;8742;51.716;8.790;2023-04-24T03:38:13;0.37;;;0.37;;
17251;SDS011;8742;51.716;8.790;2023-04-24T03:40:41;0.50;;;0.50;;
17251;SDS011;8742;51.716;8.790;2023-04-24T03:43:08;0.60;;;0.60;;
17251;SDS011;8742;51.716;8.790;2023-04-24T03:45:34;0.50;;;0.50;;
17251;SDS011;8742;51.716;8.790;2023-04-24T03:48:01;0.53;;;0.53;;
17251;SDS011;8742;51.716;8.790;2023-04-24T03:50:28;3.13;;;0.77;;
17251;SDS011;8742;51.716;8.790;2023-04-24T03:52:55;0.47;;;0.40;;
17251;SDS011;8742;51.716;8.790;2023-04-24T03:55:22;0.83;;;0.43;;
17251;SDS011;8742;51.716;8.790;2023-04-24T03:57:50;1.27;;;0.70;;
17251;SDS011;8742;51.716;8.790;2023-04-24T04:00:17;1.00;;;1.00;;
17251;SDS011;8742;51.716;8.790;2023-04-24T04:02:43;0.60;;;0.57;;
17251;SDS011;8742;51.716;8.790;2023-04-24T04:05:10;0.67;;;0.60;;
17251;SDS011;8742;51.716;8.790;2023-04-24T04:07:37;1.53;;;0.60;;
17251;SDS011;8742;51.716;8.790;2023-04-24T04:10:04;1.37;;;0.80;;
17251;SDS011;8742;51.716;8.790;2023-04-24T04:12:33;0.57;;;0.57;;
17251;SDS011;8742;51.716;8.790;2023-04-24T04:15:01;0.60;;;0.50;;
17251;SDS011;8742;51.716;8.790;2023-04-24T04:17:28;3.63;;;0.47;;
17251;SDS011;8742;51.716;8.790;2023-04-24T04:19:55;1.17;;;1.07;;
17251;SDS011;8742;51.716;8.790;2023-04-24T04:22:22;1.10;;;1.00;;
17251;SDS011;8742;51.716;8.790;2023-04-24T04:24:49;1.10;;;1.00;;
17251;SDS011;8742;51.716;8.790;2023-04-24T04:27:16;1.67;;;1.57;;
17251;SDS011;8742;51.716;8.790;2023-04-24T04:29:43;3.20;;;1.67;;
17251;SDS011;8742;51.716;8.790;2023-04-24T04:32:12;1.60;;;1.50;;
17251;SDS011;8742;51.716;8.790;2023-04-24T04:34:38;3.83;;;1.27;;
17251;SDS011;8742;51.716;8.790;2023-04-24T04:37:05;3.00;;;1.90;;
17251;SDS011;8742;51.716;8.790;2023-04-24T04:39:32;1.83;;;1.17;;
17251;SDS011;8742;51.716;8.790;2023-04-24T04:41:59;3.50;;;2.07;;
17251;SDS011;8742;51.716;8.790;2023-04-24T04:44:26;2.10;;;1.90;;
17251;SDS011;8742;51.716;8.790;2023-04-24T04:46:53;4.57;;;3.83;;
17251;SDS011;8742;51.716;8.790;2023-04-24T04:49:22;2.87;;;2.10;;
17251;SDS011;8742;51.716;8.790;2023-04-24T04:51:49;1.63;;;1.53;;
17251;SDS011;8742;51.716;8.790;2023-04-24T04:54:16;2.40;;;1.47;;
17251;SDS011;8742;51.716;8.790;2023-04-24T04:56:43;1.87;;;1.77;;
17251;SDS011;8742;51.716;8.790;2023-04-24T04:59:10;3.07;;;2.40;;
17251;SDS011;8742;51.716;8.790;2023-04-24T05:01:37;2.70;;;2.30;;
17251;SDS011;8742;51.716;8.790;2023-04-24T05:04:04;3.43;;;2.57;;
17251;SDS011;8742;51.716;8.790;2023-04-24T05:06:32;2.37;;;1.80;;
17251;SDS011;8742;51.716;8.790;2023-04-24T05:08:59;3.00;;;2.40;;
17251;SDS011;8742;51.716;8.790;2023-04-24T05:11:26;3.93;;;3.07;;
17251;SDS011;8742;51.716;8.790;2023-04-24T05:13:53;5.33;;;3.10;;
17251;SDS011;8742;51.716;8.790;2023-04-24T05:16:19;5.37;;;3.27;;
17251;SDS011;8742;51.716;8.790;2023-04-24T05:18:46;7.90;;;3.73;;
17251;SDS011;8742;51.716;8.790;2023-04-24T05:21:13;7.10;;;3.70;;
17251;SDS011;8742;51.716;8.790;2023-04-24T05:23:41;6.17;;;3.60;;
17251;SDS011;8742;51.716;8.790;2023-04-24T05:26:08;8.93;;;3.60;;
17251;SDS011;8742;51.716;8.790;2023-04-24T05:28:35;4.17;;;3.43;;
17251;SDS011;8742;51.716;8.790;2023-04-24T05:31:02;7.00;;;4.43;;
17251;SDS011;8742;51.716;8.790;2023-04-24T05:33:29;7.73;;;4.40;;
17251;SDS011;8742;51.716;8.790;2023-04-24T05:35:56;6.83;;;4.67;;
17251;SDS011;8742;51.716;8.790;2023-04-24T05:38:23;6.90;;;4.90;;
17251;SDS011;8742;51.716;8.790;2023-04-24T05:40:51;5.23;;;4.53;;
17251;SDS011;8742;51.716;8.790;2023-04-24T05:43:18;8.67;;;5.70;;
17251;SDS011;8742;51.716;8.790;2023-04-24T05:45:45;7.83;;;5.53;;
17251;SDS011;8742;51.716;8.790;2023-04-24T05:48:11;8.40;;;5.33;;
17251;SDS011;8742;51.716;8.790;2023-04-24T05:50:38;8.07;;;4.90;;
17251;SDS011;8742;51.716;8.790;2023-04-24T05:53:05;7.10;;;5.10;;
17251;SDS011;8742;51.716;8.790;2023-04-24T05:55:32;6.60;;;4.73;;
17251;SDS011;8742;51.716;8.790;2023-04-24T05:58:02;7.93;;;4.93;;
17251;SDS011;8742;51.716;8.790;2023-04-24T06:00:29;5.03;;;4.17;;
17251;SDS011;8742;51.716;8.790;2023-04-24T06:02:56;6.83;;;4.97;;
17251;SDS011;8742;51.716;8.790;2023-04-24T06:05:23;10.30;;;5.20;;
17251;SDS011;8742;51.716;8.790;2023-04-24T06:07:51;9.67;;;5.20;;
17251;SDS011;8742;51.716;8.790;2023-04-24T06:10:18;9.23;;;5.10;;
17251;SDS011;8742;51.716;8.790;2023-04-24T06:12:44;8.87;;;5.30;;
17251;SDS011;8742;51.716;8.790;2023-04-24T06:15:13;7.93;;;5.27;;
17251;SDS011;8742;51.716;8.790;2023-04-24T06:17:39;7.60;;;4.63;;
17251;SDS011;8742;51.716;8.790;2023-04-24T06:20:06;6.57;;;5.30;;
17251;SDS011;8742;51.716;8.790;2023-04-24T06:22:35;10.87;;;4.70;;
17251;SDS011;8742;51.716;8.790;2023-04-24T06:25:05;6.93;;;4.50;;
17251;SDS011;8742;51.716;8.790;2023-04-24T06:27:32;6.57;;;4.43;;
17251;SDS011;8742;51.716;8.790;2023-04-24T06:29:59;7.10;;;4.70;;
17251;SDS011;8742;51.716;8.790;2023-04-24T06:32:27;7.40;;;3.93;;
17251;SDS011;8742;51.716;8.790;2023-04-24T06:34:56;7.23;;;4.47;;
17251;SDS011;8742;51.716;8.790;2023-04-24T06:37:22;9.40;;;4.60;;
17251;SDS011;8742;51.716;8.790;2023-04-24T06:39:50;7.67;;;4.43;;
17251;SDS011;8742;51.716;8.790;2023-04-24T06:42:16;5.50;;;4.27;;
17251;SDS011;8742;51.716;8.790;2023-04-24T06:44:45;7.83;;;5.00;;
17251;SDS011;8742;51.716;8.790;2023-04-24T06:47:12;7.50;;;4.70;;
17251;SDS011;8742;51.716;8.790;2023-04-24T06:49:41;8.63;;;5.17;;
17251;SDS011;8742;51.716;8.790;2023-04-24T06:52:08;8.00;;;5.20;;
17251;SDS011;8742;51.716;8.790;2023-04-24T06:54:34;9.33;;;5.93;;
17251;SDS011;8742;51.716;8.790;2023-04-24T06:57:01;6.97;;;4.87;;
17251;SDS011;8742;51.716;8.790;2023-04-24T06:59:28;8.37;;;4.67;;
17251;SDS011;8742;51.716;8.790;2023-04-24T07:01:56;7.33;;;4.50;;
17251;SDS011;8742;51.716;8.790;2023-04-24T07:04:23;6.10;;;4.23;;
17251;SDS011;8742;51.716;8.790;2023-04-24T07:06:51;10.17;;;4.60;;
17251;SDS011;8742;51.716;8.790;2023-04-24T07:09:20;8.03;;;4.03;;
17251;SDS011;8742;51.716;8.790;2023-04-24T07:11:48;5.97;;;4.30;;
17251;SDS011;8742;51.716;8.790;2023-04-24T07:14:16;7.63;;;3.90;;
17251;SDS011;8742;51.716;8.790;2023-04-24T07:16:43;4.93;;;3.83;;
17251;SDS011;8742;51.716;8.790;2023-04-24T07:19:12;6.03;;;4.03;;
17251;SDS011;8742;51.716;8.790;2023-04-24T07:21:39;5.77;;;3.80;;
17251;SDS011;8742;51.716;8.790;2023-04-24T07:24:08;4.97;;;3.60;;
17251;SDS011;8742;51.716;8.790;2023-04-24T07:26:36;5.80;;;3.57;;
17251;SDS011;8742;51.716;8.790;2023-04-24T07:29:03;6.23;;;3.80;;
17251;SDS011;8742;51.716;8.790;2023-04-24T07:31:30;4.43;;;3.57;;
17251;SDS011;8742;51.716;8.790;2023-04-24T07:33:57;5.77;;;3.50;;
17251;SDS011;8742;51.716;8.790;2023-04-24T07:36:24;4.77;;;3.60;;
17251;SDS011;8742;51.716;8.790;2023-04-24T07:38:51;5.40;;;3.43;;
17251;SDS011;8742;51.716;8.790;2023-04-24T07:41:19;5.80;;;3.57;;
17251;SDS011;8742;51.716;8.790;2023-04-24T07:43:46;4.47;;;3.47;;
17251;SDS011;8742;51.716;8.790;2023-04-24T07:46:13;3.70;;;3.00;;
17251;SDS011;8742;51.716;8.790;2023-04-24T07:48:40;5.43;;;3.20;;
17251;SDS011;8742;51.716;8.790;2023-04-24T07:51:07;5.23;;;3.37;;
17251;SDS011;8742;51.716;8.790;2023-04-24T07:53:35;6.73;;;3.37;;
17251;SDS011;8742;51.716;8.790;2023-04-24T07:56:02;4.87;;;2.83;;
17251;SDS011;8742;51.716;8.790;2023-04-24T07:58:30;4.17;;;2.93;;
17251;SDS011;8742;51.716;8.790;2023-04-24T08:00:57;4.80;;;3.10;;
17251;SDS011;8742;51.716;8.790;2023-04-24T08:03:23;4.60;;;3.10;;
17251;SDS011;8742;51.716;8.790;2023-04-24T08:05:50;5.70;;;3.03;;
17251;SDS011;8742;51.716;8.790;2023-04-24T08:08:17;5.70;;;3.17;;
17251;SDS011;8742;51.716;8.790;2023-04-24T08:10:46;3.73;;;2.70;;
17251;SDS011;8742;51.716;8.790;2023-04-24T08:13:13;4.53;;;2.73;;
17251;SDS011;8742;51.716;8.790;2023-04-24T08:15:41;7.43;;;2.67;;
17251;SDS011;8742;51.716;8.790;2023-04-24T08:18:08;4.20;;;3.03;;
17251;SDS011;8742;51.716;8.790;2023-04-24T08:20:36;3.33;;;2.87;;
17251;SDS011;8742;51.716;8.790;2023-04-24T08:23:03;2.97;;;2.57;;
17251;SDS011;8742;51.716;8.790;2023-04-24T08:25:30;3.90;;;2.80;;
17251;SDS011;8742;51.716;8.790;2023-04-24T08:28:00;5.37;;;2.87;;
17251;SDS011;8742;51.716;8.790;2023-04-24T08:30:28;3.47;;;2.70;;
17251;SDS011;8742;51.716;8.790;2023-04-24T08:32:56;5.73;;;3.20;;
17251;SDS011;8742;51.716;8.790;2023-04-24T08:35:23;2.90;;;2.43;;
17251;SDS011;8742;51.716;8.790;2023-04-24T08:37:51;2.90;;;2.70;;
17251;SDS011;8742;51.716;8.790;2023-04-24T08:40:18;4.07;;;2.63;;
17251;SDS011;8742;51.716;8.790;2023-04-24T08:42:53;4.23;;;3.20;;
17251;SDS011;8742;51.716;8.790;2023-04-24T08:45:21;3.90;;;3.00;;
17251;SDS011;8742;51.716;8.790;2023-04-24T08:47:49;4.20;;;2.77;;
17251;SDS011;8742;51.716;8.790;2023-04-24T08:50:19;3.50;;;2.40;;
17251;SDS011;8742;51.716;8.790;2023-04-24T08:52:47;4.00;;;2.60;;
17251;SDS011;8742;51.716;8.790;2023-04-24T08:55:16;2.60;;;2.30;;
17251;SDS011;8742;51.716;8.790;2023-04-24T08:57:43;2.40;;;2.20;;
17251;SDS011;8742;51.716;8.790;2023-04-24T09:00:11;3.30;;;2.50;;
17251;SDS011;8742;51.716;8.790;2023-04-24T09:02:39;3.50;;;2.63;;
17251;SDS011;8742;51.716;8.790;2023-04-24T09:05:09;4.03;;;1.77;;
17251;SDS011;8742;51.716;8.790;2023-04-24T09:07:37;2.73;;;2.27;;
17251;SDS011;8742;51.716;8.790;2023-04-24T09:10:07;2.37;;;2.10;;
17251;SDS011;8742;51.716;8.790;2023-04-24T09:12:34;1.60;;;1.50;;
17251;SDS011;8742;51.716;8.790;2023-04-24T09:15:02;2.80;;;1.60;;
17251;SDS011;8742;51.716;8.790;2023-04-24T09:17:30;2.63;;;1.60;;
17251;SDS011;8742;51.716;8.790;2023-04-24T09:19:57;2.17;;;1.83;;
17251;SDS011;8742;51.716;8.790;2023-04-24T09:22:23;3.77;;;2.23;;
17251;SDS011;8742;51.716;8.790;2023-04-24T09:25:00;2.00;;;1.50;;
17251;SDS011;8742;51.716;8.790;2023-04-24T09:27:29;6.83;;;1.70;;
17251;SDS011;8742;51.716;8.790;2023-04-24T09:29:57;1.33;;;1.20;;
17251;SDS011;8742;51.716;8.790;2023-04-24T09:32:24;2.63;;;1.83;;
17251;SDS011;8742;51.716;8.790;2023-04-24T09:35:05;2.13;;;1.60;;
17251;SDS011;8742;51.716;8.790;2023-04-24T09:37:36;1.47;;;1.37;;
17251;SDS011;8742;51.716;8.790;2023-04-24T09:40:08;3.13;;;1.90;;
17251;SDS011;8742;51.716;8.790;2023-04-24T09:42:39;1.50;;;1.33;;
17251;SDS011;8742;51.716;8.790;2023-04-24T09:45:10;1.30;;;1.20;;
17251;SDS011;8742;51.716;8.790;2023-04-24T09:47:37;2.50;;;1.70;;
17251;SDS011;8742;51.716;8.790;2023-04-24T09:50:11;1.90;;;1.10;;
17251;SDS011;8742;51.716;8.790;2023-04-24T09:52:40;1.57;;;1.10;;
17251;SDS011;8742;51.716;8.790;2023-04-24T09:55:13;1.33;;;1.23;;
17251;SDS011;8742;51.716;8.790;2023-04-24T09:57:47;1.03;;;1.00;;
17251;SDS011;8742;51.716;8.790;2023-04-24T10:00:17;1.57;;;1.23;;
17251;SDS011;8742;51.716;8.790;2023-04-24T10:02:54;1.30;;;1.20;;
17251;SDS011;8742;51.716;8.790;2023-04-24T10:05:27;0.67;;;0.67;;
17251;SDS011;8742;51.716;8.790;2023-04-24T10:07:56;0.87;;;0.77;;
17251;SDS011;8742;51.716;8.790;2023-04-24T10:10:25;0.90;;;0.53;;
17251;SDS011;8742;51.716;8.790;2023-04-24T10:12:52;0.60;;;0.60;;
17251;SDS011;8742;51.716;8.790;2023-04-24T10:15:19;1.53;;;0.80;;
17251;SDS011;8742;51.716;8.790;2023-04-24T10:17:47;0.63;;;0.63;;
17251;SDS011;8742;51.716;8.790;2023-04-24T10:20:17;0.47;;;0.47;;
17251;SDS011;8742;51.716;8.790;2023-04-24T10:22:45;1.10;;;1.00;;
17251;SDS011;8742;51.716;8.790;2023-04-24T10:25:15;0.80;;;0.70;;
17251;SDS011;8742;51.716;8.790;2023-04-24T10:27:44;1.00;;;0.83;;
17251;SDS011;8742;51.716;8.790;2023-04-24T10:30:12;0.90;;;0.90;;
17251;SDS011;8742;51.716;8.790;2023-04-24T10:32:39;0.87;;;0.53;;
17251;SDS011;8742;51.716;8.790;2023-04-24T10:35:06;0.60;;;0.60;;
17251;SDS011;8742;51.716;8.790;2023-04-24T10:37:35;0.30;;;0.30;;
17251;SDS011;8742;51.716;8.790;2023-04-24T10:40:04;0.30;;;0.30;;
17251;SDS011;8742;51.716;8.790;2023-04-24T10:42:33;1.30;;;1.20;;
17251;SDS011;8742;51.716;8.790;2023-04-24T10:45:05;0.30;;;0.30;;
17251;SDS011;8742;51.716;8.790;2023-04-24T10:47:39;2.33;;;0.43;;
17251;SDS011;8742;51.716;8.790;2023-04-24T10:50:07;4.53;;;0.63;;
17251;SDS011;8742;51.716;8.790;2023-04-24T10:52:45;1.13;;;0.30;;
17251;SDS011;8742;51.716;8.790;2023-04-24T10:55:12;6.67;;;0.87;;
17251;SDS011;8742;51.716;8.790;2023-04-24T10:57:40;0.30;;;0.30;;
17251;SDS011;8742;51.716;8.790;2023-04-24T11:00:29;0.23;;;0.20;;
17251;SDS011;8742;51.716;8.790;2023-04-24T11:09:41;4.17;;;1.23;;
17251;SDS011;8742;51.716;8.790;2023-04-24T11:12:09;6.97;;;3.57;;
17251;SDS011;8742;51.716;8.790;2023-04-24T11:17:30;7.30;;;4.20;;
17251;SDS011;8742;51.716;8.790;2023-04-24T11:20:01;1.53;;;1.43;;
17251;SDS011;8742;51.716;8.790;2023-04-24T11:22:30;1.10;;;0.90;;
17251;SDS011;8742;51.716;8.790;2023-04-24T11:25:00;1.00;;;1.00;;
17251;SDS011;8742;51.716;8.790;2023-04-24T11:27:29;0.50;;;0.50;;
17251;SDS011;8742;51.716;8.790;2023-04-24T11:30:00;0.60;;;0.50;;
17251;SDS011;8742;51.716;8.790;2023-04-24T11:32:33;0.50;;;0.50;;
17251;SDS011;8742;51.716;8.790;2023-04-24T11:35:03;0.73;;;0.73;;
17251;SDS011;8742;51.716;8.790;2023-04-24T11:37:33;1.83;;;1.60;;
17251;SDS011;8742;51.716;8.790;2023-04-24T11:40:03;2.17;;;1.47;;
17251;SDS011;8742;51.716;8.790;2023-04-24T11:42:33;1.50;;;1.40;;
17251;SDS011;8742;51.716;8.790;2023-04-24T11:45:00;2.30;;;2.07;;
17251;SDS011;8742;51.716;8.790;2023-04-24T11:47:29;1.30;;;1.20;;
17251;SDS011;8742;51.716;8.790;2023-04-24T11:49:59;2.17;;;1.97;;
17251;SDS011;8742;51.716;8.790;2023-04-24T11:52:26;2.23;;;1.60;;
17251;SDS011;8742;51.716;8.790;2023-04-24T11:54:53;1.77;;;1.50;;
17251;SDS011;8742;51.716;8.790;2023-04-24T11:57:20;1.80;;;1.70;;
17251;SDS011;8742;51.716;8.790;2023-04-24T11:59:47;4.90;;;1.83;;
17251;SDS011;8742;51.716;8.790;2023-04-24T12:02:21;2.03;;;1.60;;
17251;SDS011;8742;51.716;8.790;2023-04-24T12:04:50;2.10;;;1.47;;
17251;SDS011;8742;51.716;8.790;2023-04-24T12:07:17;1.60;;;1.40;;
17251;SDS011;8742;51.716;8.790;2023-04-24T12:09:44;2.13;;;1.60;;
17251;SDS011;8742;51.716;8.790;2023-04-24T12:12:13;1.73;;;1.30;;
17251;SDS011;8742;51.716;8.790;2023-04-24T12:14:42;3.47;;;1.30;;
17251;SDS011;8742;51.716;8.790;2023-04-24T12:17:09;2.40;;;1.60;;
17251;SDS011;8742;51.716;8.790;2023-04-24T12:19:36;2.70;;;1.80;;
17251;SDS011;8742;51.716;8.790;2023-04-24T12:22:05;1.47;;;1.37;;
17251;SDS011;8742;51.716;8.790;2023-04-24T12:24:32;2.93;;;1.90;;
17251;SDS011;8742;51.716;8.790;2023-04-24T12:26:59;1.70;;;1.60;;
17251;SDS011;8742;51.716;8.790;2023-04-24T12:29:27;1.93;;;1.60;;
17251;SDS011;8742;51.716;8.790;2023-04-24T12:31:54;1.70;;;1.60;;
17251;SDS011;8742;51.716;8.790;2023-04-24T12:34:22;1.43;;;1.33;;
17251;SDS011;8742;51.716;8.790;2023-04-24T12:36:50;3.73;;;1.80;;
17251;SDS011;8742;51.716;8.790;2023-04-24T12:39:19;2.80;;;2.10;;
17251;SDS011;8742;51.716;8.790;2023-04-24T12:41:54;2.17;;;1.97;;
17251;SDS011;8742;51.716;8.790;2023-04-24T12:44:28;4.63;;;2.10;;
17251;SDS011;8742;51.716;8.790;2023-04-24T12:46:56;5.10;;;2.47;;
17251;SDS011;8742;51.716;8.790;2023-04-24T12:49:23;9.37;;;2.50;;
17251;SDS011;8742;51.716;8.790;2023-04-24T12:51:50;8.87;;;2.27;;
17251;SDS011;8742;51.716;8.790;2023-04-24T12:54:19;3.00;;;2.57;;
17251;SDS011;8742;51.716;8.790;2023-04-24T12:56:45;6.80;;;2.67;;
17251;SDS011;8742;51.716;8.790;2023-04-24T12:59:12;6.20;;;3.83;;
17251;SDS011;8742;51.716;8.790;2023-04-24T13:01:40;6.90;;;3.17;;
17251;SDS011;8742;51.716;8.790;2023-04-24T13:04:07;3.83;;;3.17;;
17251;SDS011;8742;51.716;8.790;2023-04-24T13:06:34;5.70;;;3.57;;
17251;SDS011;8742;51.716;8.790;2023-04-24T13:09:00;9.33;;;3.57;;
17251;SDS011;8742;51.716;8.790;2023-04-24T13:11:29;6.27;;;3.80;;
17251;SDS011;8742;51.716;8.790;2023-04-24T13:13:56;9.37;;;4.10;;
17251;SDS011;8742;51.716;8.790;2023-04-24T13:16:23;7.47;;;4.10;;
17251;SDS011;8742;51.716;8.790;2023-04-24T13:18:50;9.47;;;4.00;;
17251;SDS011;8742;51.716;8.790;2023-04-24T13:21:17;6.37;;;4.17;;
17251;SDS011;8742;51.716;8.790;2023-04-24T13:23:43;8.07;;;4.23;;
17251;SDS011;8742;51.716;8.790;2023-04-24T13:26:10;8.93;;;3.67;;
17251;SDS011;8742;51.716;8.790;2023-04-24T13:28:38;7.73;;;4.07;;
17251;SDS011;8742;51.716;8.790;2023-04-24T13:31:05;12.00;;;4.20;;
17251;SDS011;8742;51.716;8.790;2023-04-24T13:33:32;7.40;;;3.97;;
17251;SDS011;8742;51.716;8.790;2023-04-24T13:35:59;8.77;;;4.73;;
17251;SDS011;8742;51.716;8.790;2023-04-24T13:38:26;7.83;;;4.10;;
17251;SDS011;8742;51.716;8.790;2023-04-24T13:40:52;9.07;;;4.60;;
17251;SDS011;8742;51.716;8.790;2023-04-24T13:43:19;7.93;;;4.33;;
17251;SDS011;8742;51.716;8.790;2023-04-24T13:45:48;11.97;;;4.40;;
17251;SDS011;8742;51.716;8.790;2023-04-24T13:48:15;7.73;;;5.10;;
17251;SDS011;8742;51.716;8.790;2023-04-24T13:50:41;12.00;;;5.03;;
17251;SDS011;8742;51.716;8.790;2023-04-24T13:53:09;16.77;;;5.30;;
17251;SDS011;8742;51.716;8.790;2023-04-24T13:55:36;13.10;;;6.17;;
17251;SDS011;8742;51.716;8.790;2023-04-24T13:58:04;10.97;;;5.70;;
17251;SDS011;8742;51.716;8.790;2023-04-24T14:00:31;15.67;;;5.90;;
17251;SDS011;8742;51.716;8.790;2023-04-24T14:02:59;10.53;;;6.37;;
17251;SDS011;8742;51.716;8.790;2023-04-24T14:05:26;14.17;;;8.33;;
17251;SDS011;8742;51.716;8.790;2023-04-24T14:07:53;19.43;;;7.30;;
17251;SDS011;8742;51.716;8.790;2023-04-24T14:10:20;20.73;;;7.27;;
17251;SDS011;8742;51.716;8.790;2023-04-24T14:12:47;17.63;;;7.93;;
17251;SDS011;8742;51.716;8.790;2023-04-24T14:15:14;18.67;;;8.10;;
17251;SDS011;8742;51.716;8.790;2023-04-24T14:17:41;18.70;;;8.43;;
17251;SDS011;8742;51.716;8.790;2023-04-24T14:20:10;18.53;;;7.97;;
17251;SDS011;8742;51.716;8.790;2023-04-24T14:22:38;16.67;;;8.50;;
17251;SDS011;8742;51.716;8.790;2023-04-24T14:25:05;16.60;;;8.87;;
17251;SDS011;8742;51.716;8.790;2023-04-24T14:27:32;15.23;;;8.17;;
17251;SDS011;8742;51.716;8.790;2023-04-24T14:29:59;20.03;;;9.07;;
17251;SDS011;8742;51.716;8.790;2023-04-24T14:32:26;19.60;;;8.77;;
17251;SDS011;8742;51.716;8.790;2023-04-24T14:34:53;17.47;;;8.17;;
17251;SDS011;8742;51.716;8.790;2023-04-24T14:37:21;18.47;;;7.13;;
17251;SDS011;8742;51.716;8.790;2023-04-24T14:39:48;16.43;;;8.17;;
17251;SDS011;8742;51.716;8.790;2023-04-24T14:42:15;16.03;;;7.33;;
17251;SDS011;8742;51.716;8.790;2023-04-24T14:44:42;19.63;;;8.03;;
17251;SDS011;8742;51.716;8.790;2023-04-24T14:47:09;15.53;;;7.93;;
17251;SDS011;8742;51.716;8.790;2023-04-24T14:49:36;16.27;;;7.63;;
17251;SDS011;8742;51.716;8.790;2023-04-24T14:52:03;13.90;;;6.37;;
17251;SDS011;8742;51.716;8.790;2023-04-24T14:54:32;14.27;;;6.17;;
17251;SDS011;8742;51.716;8.790;2023-04-24T14:56:58;18.17;;;6.47;;
17251;SDS011;8742;51.716;8.790;2023-04-24T14:59:26;7.83;;;4.77;;
17251;SDS011;8742;51.716;8.790;2023-04-24T15:01:53;8.20;;;4.70;;
17251;SDS011;8742;51.716;8.790;2023-04-24T15:04:22;7.83;;;4.57;;
17251;SDS011;8742;51.716;8.790;2023-04-24T15:06:50;10.33;;;4.60;;
17251;SDS011;8742;51.716;8.790;2023-04-24T15:09:18;8.17;;;4.53;;
17251;SDS011;8742;51.716;8.790;2023-04-24T15:11:47;10.70;;;4.40;;
17251;SDS011;8742;51.716;8.790;2023-04-24T15:14:14;9.20;;;3.97;;